createdAt,value
2023-03-02T00:01:06.335Z,62.22
2023-03-02T00:03:40.453Z,62.37
2023-03-02T00:06:13.334Z,62.01
2023-03-02T00:08:47.384Z,62.01
2023-03-02T00:11:19.647Z,61.82
2023-03-02T00:13:51.922Z,61.99
2023-03-02T00:16:24.277Z,61.73
2023-03-02T00:18:56.569Z,61.99
2023-03-02T00:21:29.019Z,61.65
2023-03-02T00:24:01.398Z,61.73
2023-03-02T00:26:36.345Z,61.69
2023-03-02T00:29:08.927Z,61.67
2023-03-02T00:31:41.330Z,61.65
2023-03-02T00:34:13.794Z,61.58
2023-03-02T00:36:49.632Z,61.54
2023-03-02T00:39:22.068Z,61.49
2023-03-02T00:41:54.441Z,61.18
2023-03-02T00:44:26.790Z,61.23
2023-03-02T00:46:59.256Z,61.37
2023-03-02T00:49:31.669Z,61.23
2023-03-02T00:52:04.575Z,61.23
2023-03-02T00:54:37.042Z,61.45
2023-03-02T00:57:09.399Z,61.27
2023-03-02T00:59:42.363Z,61.33
2023-03-02T01:02:14.860Z,61.06
2023-03-02T01:04:48.387Z,61.05
2023-03-02T01:07:22.476Z,61.23
2023-03-02T01:09:55.009Z,61.32
2023-03-02T01:12:27.347Z,61.09
2023-03-02T01:14:59.832Z,61.21
2023-03-02T01:17:32.311Z,61.15
2023-03-02T01:20:05.791Z,61.04
2023-03-02T01:22:38.109Z,61.06
2023-03-02T01:25:11.197Z,60.96
2023-03-02T01:27:43.613Z,61.14
2023-03-02T01:30:17.075Z,61.15
2023-03-02T01:32:49.582Z,61.13
2023-03-02T01:35:22.297Z,61.20
2023-03-02T01:37:54.806Z,61.10
2023-03-02T01:40:27.269Z,60.82
2023-03-02T01:43:02.550Z,60.83
2023-03-02T01:46:01.111Z,60.94
2023-03-02T01:48:38.513Z,60.92
2023-03-02T01:51:16.055Z,61.05
2023-03-02T01:53:50.702Z,60.94
2023-03-02T01:56:26.340Z,61.03
2023-03-02T01:59:02.638Z,60.99
2023-03-02T02:01:36.873Z,61.11
2023-03-02T02:04:09.644Z,60.66
2023-03-02T02:06:45.929Z,60.90
2023-03-02T02:09:21.958Z,60.82
2023-03-02T02:11:52.560Z,60.74
2023-03-02T02:14:25.760Z,60.73
2023-03-02T02:16:58.340Z,60.49
2023-03-02T02:19:44.416Z,60.20
2023-03-02T02:22:22.756Z,60.27
2023-03-02T02:24:58.740Z,60.16
2023-03-02T02:27:34.290Z,60.29
2023-03-02T02:30:12.780Z,60.34
2023-03-02T02:32:49.100Z,60.32
2023-03-02T02:35:27.453Z,60.33
2023-03-02T02:38:04.371Z,59.78
2023-03-02T02:40:51.115Z,59.71
2023-03-02T02:43:25.266Z,59.58
2023-03-02T02:46:00.538Z,59.57
2023-03-02T02:48:35.906Z,59.42
2023-03-02T02:51:10.585Z,59.31
2023-03-02T02:53:49.132Z,59.23
2023-03-02T02:56:21.791Z,58.56
2023-03-02T02:58:57.233Z,58.81
2023-03-02T03:01:29.997Z,58.91
2023-03-02T03:04:05.930Z,58.82
2023-03-02T03:06:42.752Z,58.71
2023-03-02T03:09:15.233Z,58.66
2023-03-02T03:11:50.977Z,58.62
2023-03-02T03:14:28.195Z,58.25
2023-03-02T03:17:00.539Z,58.14
2023-03-02T03:19:34.197Z,58.30
2023-03-02T03:22:06.640Z,58.39
2023-03-02T03:24:39.373Z,58.62
2023-03-02T03:27:13.646Z,58.63
2023-03-02T03:29:48.934Z,58.46
2023-03-02T03:32:22.011Z,58.63
2023-03-02T03:34:54.487Z,58.59
2023-03-02T03:37:26.998Z,58.93
2023-03-02T03:39:59.384Z,58.87
2023-03-02T03:42:32.757Z,58.84
2023-03-02T03:45:05.226Z,58.99
2023-03-02T03:47:37.680Z,58.89
2023-03-02T03:50:11.465Z,59.01
2023-03-02T03:52:43.903Z,58.95
2023-03-02T03:55:16.512Z,59.00
2023-03-02T03:57:48.841Z,58.87
2023-03-02T04:00:24.348Z,58.87
2023-03-02T04:02:57.132Z,58.83
2023-03-02T04:05:31.498Z,58.79
2023-03-02T04:08:04.141Z,58.74
2023-03-02T04:10:37.344Z,58.91
2023-03-02T04:13:10.090Z,58.75
2023-03-02T04:15:46.545Z,58.94
2023-03-02T04:18:19.413Z,59.01
2023-03-02T04:20:51.692Z,58.97
2023-03-02T04:23:23.911Z,58.85
2023-03-02T04:25:56.172Z,58.78
2023-03-02T04:28:28.610Z,58.92
2023-03-02T04:31:00.932Z,58.85
2023-03-02T04:33:33.358Z,58.98
2023-03-02T04:36:06.020Z,58.75
2023-03-02T04:38:38.281Z,58.85
2023-03-02T04:41:10.675Z,58.77
2023-03-02T04:43:43.097Z,58.82
2023-03-02T04:46:20.459Z,59.05
2023-03-02T04:48:53.192Z,58.82
2023-03-02T04:51:28.999Z,58.91
2023-03-02T04:54:07.420Z,58.91
2023-03-02T04:56:39.824Z,58.91
2023-03-02T04:59:12.195Z,58.85
2023-03-02T05:01:44.672Z,58.97
2023-03-02T05:04:17.304Z,58.67
2023-03-02T05:06:49.779Z,58.72
2023-03-02T05:09:27.501Z,58.84
2023-03-02T05:12:01.700Z,58.89
2023-03-02T05:14:34.098Z,58.97
2023-03-02T05:17:06.517Z,58.89
2023-03-02T05:19:39.574Z,58.93
2023-03-02T05:22:11.965Z,58.76
2023-03-02T05:24:44.300Z,58.76
2023-03-02T05:27:16.730Z,58.80
2023-03-02T05:29:49.009Z,58.73
2023-03-02T05:32:21.356Z,58.83
2023-03-02T05:34:53.674Z,58.85
2023-03-02T05:37:26.065Z,59.08
2023-03-02T05:39:58.484Z,58.89
2023-03-02T05:42:30.700Z,58.96
2023-03-02T05:45:03.124Z,58.87
2023-03-02T05:47:35.526Z,58.93
2023-03-02T05:50:09.398Z,59.04
2023-03-02T05:52:41.782Z,59.14
2023-03-02T05:55:15.742Z,59.08
2023-03-02T05:57:49.453Z,58.97
2023-03-02T06:00:23.562Z,59.13
2023-03-02T06:02:57.276Z,59.05
2023-03-02T06:05:30.190Z,58.86
2023-03-02T06:08:02.935Z,58.90
2023-03-02T06:10:36.090Z,58.96
2023-03-02T06:13:08.505Z,58.80
2023-03-02T06:15:40.969Z,59.08
2023-03-02T06:18:13.951Z,59.09
2023-03-02T06:20:46.293Z,59.06
2023-03-02T06:23:18.691Z,59.02
2023-03-02T06:25:51.143Z,58.98
2023-03-02T06:28:23.562Z,59.04
2023-03-02T06:30:56.372Z,59.05
2023-03-02T06:33:28.852Z,59.01
2023-03-02T06:36:01.416Z,58.99
2023-03-02T06:38:33.880Z,59.10
2023-03-02T06:41:06.432Z,59.18
2023-03-02T06:43:38.761Z,59.11
2023-03-02T06:46:11.372Z,59.23
2023-03-02T06:48:43.920Z,59.13
2023-03-02T06:51:16.338Z,59.04
2023-03-02T06:53:48.665Z,59.02
2023-03-02T06:56:21.136Z,58.95
2023-03-02T06:58:54.050Z,59.02
2023-03-02T07:01:26.440Z,58.93
2023-03-02T07:03:59.296Z,58.96
2023-03-02T07:06:31.794Z,58.72
2023-03-02T07:09:04.602Z,58.89
2023-03-02T07:11:36.895Z,58.87
2023-03-02T07:14:09.504Z,58.89
2023-03-02T07:16:42.119Z,58.84
2023-03-02T07:19:15.997Z,58.86
2023-03-02T07:21:48.348Z,58.93
2023-03-02T07:24:20.688Z,58.88
2023-03-02T07:26:53.184Z,58.88
2023-03-02T07:29:25.451Z,58.84
2023-03-02T07:32:00.633Z,59.06
2023-03-02T07:34:33.176Z,58.97
2023-03-02T07:37:05.676Z,59.01
2023-03-02T07:39:38.181Z,59.01
2023-03-02T07:42:13.008Z,58.97
2023-03-02T07:44:45.383Z,58.97
2023-03-02T07:47:17.858Z,59.10
2023-03-02T07:49:50.204Z,58.91
2023-03-02T07:52:22.621Z,58.87
2023-03-02T07:54:55.021Z,58.98
2023-03-02T07:57:27.394Z,58.93
2023-03-02T07:59:59.741Z,59.00
2023-03-02T08:02:33.796Z,58.86
2023-03-02T08:05:06.773Z,58.83
2023-03-02T08:07:40.036Z,58.72
2023-03-02T08:10:14.110Z,58.83
2023-03-02T08:12:46.619Z,58.84
2023-03-02T08:15:19.158Z,58.86
2023-03-02T08:17:51.559Z,58.71
2023-03-02T08:20:23.922Z,58.60
2023-03-02T08:22:56.291Z,58.32
2023-03-02T08:25:29.082Z,58.52
2023-03-02T08:28:01.553Z,58.57
2023-03-02T08:30:33.903Z,58.77
2023-03-02T08:33:07.316Z,58.51
2023-03-02T08:35:39.950Z,58.53
2023-03-02T08:38:12.288Z,58.34
2023-03-02T08:40:44.638Z,58.18
2023-03-02T08:43:17.047Z,58.41
2023-03-02T08:45:53.941Z,58.48
2023-03-02T08:48:27.488Z,58.28
2023-03-02T08:51:01.870Z,58.26
2023-03-02T08:53:38.013Z,57.85
2023-03-02T08:56:19.101Z,57.84
2023-03-02T08:58:53.514Z,57.86
2023-03-02T09:01:28.887Z,57.82
2023-03-02T09:04:02.207Z,58.08
2023-03-02T09:06:37.258Z,58.09
2023-03-02T09:09:12.117Z,57.91
2023-03-02T09:11:45.060Z,57.86
2023-03-02T09:14:17.468Z,57.45
2023-03-02T09:16:49.972Z,57.72
2023-03-02T09:19:22.374Z,57.50
2023-03-02T09:21:54.765Z,57.18
2023-03-02T09:24:27.218Z,57.16
2023-03-02T09:26:59.665Z,57.36
2023-03-02T09:29:32.218Z,57.10
2023-03-02T09:32:04.898Z,57.34
2023-03-02T09:34:37.912Z,57.18
2023-03-02T09:37:10.248Z,57.11
2023-03-02T09:39:42.754Z,57.16
2023-03-02T09:42:43.179Z,57.11
2023-03-02T09:45:40.847Z,57.15
2023-03-02T09:48:22.722Z,57.12
2023-03-02T09:51:06.299Z,56.85
2023-03-02T09:53:48.930Z,56.90
2023-03-02T09:56:23.014Z,56.85
2023-03-02T09:59:00.801Z,57.21
2023-03-02T10:01:45.935Z,57.07
2023-03-02T10:04:25.070Z,56.91
2023-03-02T10:07:03.136Z,56.82
2023-03-02T10:09:35.502Z,56.75
2023-03-02T10:12:25.909Z,56.87
2023-03-02T10:15:04.541Z,56.64
2023-03-02T10:17:51.979Z,56.53
2023-03-02T10:20:34.257Z,56.57
2023-03-02T10:23:22.095Z,56.32
2023-03-02T10:26:02.431Z,56.58
2023-03-02T10:28:39.668Z,56.32
2023-03-02T10:31:26.016Z,56.82
2023-03-02T10:33:58.976Z,56.08
2023-03-02T10:36:36.155Z,56.13
2023-03-02T10:39:16.348Z,56.19
2023-03-02T10:41:52.958Z,56.08
2023-03-02T10:44:30.167Z,56.22
2023-03-02T10:47:02.840Z,56.16
2023-03-02T10:49:39.501Z,56.19
2023-03-02T10:52:17.171Z,56.16
2023-03-02T10:54:49.924Z,56.04
2023-03-02T10:57:39.031Z,56.03
2023-03-02T11:00:26.041Z,55.77
2023-03-02T11:03:01.326Z,56.16
2023-03-02T11:05:36.508Z,55.61
2023-03-02T11:08:18.363Z,55.61
2023-03-02T11:11:00.536Z,55.28
2023-03-02T11:13:36.633Z,55.83
2023-03-02T11:16:28.613Z,55.54
2023-03-02T11:19:05.032Z,55.58
2023-03-02T11:21:43.033Z,55.69
2023-03-02T11:24:19.999Z,55.22
2023-03-02T11:26:56.227Z,55.26
2023-03-02T11:29:35.414Z,55.61
2023-03-02T11:32:14.665Z,55.61
2023-03-02T11:34:51.820Z,55.13
2023-03-02T11:37:27.321Z,55.26
2023-03-02T11:40:14.706Z,55.22
2023-03-02T11:42:48.368Z,55.27
2023-03-02T11:45:25.010Z,55.41
2023-03-02T11:48:03.706Z,55.40
2023-03-02T11:50:42.406Z,54.90
2023-03-02T11:53:19.335Z,55.41
2023-03-02T11:55:52.882Z,55.19
2023-03-02T11:58:28.266Z,55.16
2023-03-02T12:01:01.290Z,55.01
2023-03-02T12:03:45.096Z,54.79
2023-03-02T12:06:36.717Z,54.36
2023-03-02T12:09:34.599Z,54.59
2023-03-02T12:12:41.015Z,55.14
2023-03-02T12:15:39.314Z,54.97
2023-03-02T12:18:53.188Z,55.20
2023-03-02T12:21:27.241Z,55.09
2023-03-02T12:24:04.173Z,54.96
2023-03-02T12:26:38.943Z,55.18
2023-03-02T12:29:25.647Z,54.99
2023-03-02T12:31:57.598Z,54.84
2023-03-02T12:34:39.334Z,54.88
2023-03-02T12:37:18.897Z,54.81
2023-03-02T12:40:24.896Z,54.50
2023-03-02T12:43:20.508Z,54.64
2023-03-02T12:46:14.013Z,54.75
2023-03-02T12:48:49.700Z,54.71
2023-03-02T12:51:24.639Z,54.80
2023-03-02T12:54:07.964Z,54.64
2023-03-02T12:56:40.372Z,54.73
2023-03-02T12:59:24.235Z,54.69
2023-03-02T13:02:07.626Z,54.68
2023-03-02T13:04:40.004Z,54.55
2023-03-02T13:07:21.417Z,54.67
2023-03-02T13:09:57.124Z,54.64
2023-03-02T13:12:30.788Z,54.48
2023-03-02T13:15:03.301Z,54.56
2023-03-02T13:17:35.735Z,54.57
2023-03-02T13:20:12.173Z,54.59
2023-03-02T13:22:44.740Z,54.40
2023-03-02T13:25:25.991Z,54.64
2023-03-02T13:28:02.554Z,54.65
2023-03-02T13:30:37.292Z,54.57
2023-03-02T13:33:23.786Z,54.29
2023-03-02T13:35:54.661Z,54.05
2023-03-02T13:38:31.699Z,54.24
2023-03-02T13:41:04.672Z,54.43
2023-03-02T13:43:43.562Z,54.42
2023-03-02T13:46:31.473Z,54.42
2023-03-02T13:49:11.052Z,54.50
2023-03-02T13:51:46.645Z,54.59
2023-03-02T13:54:23.649Z,54.39
2023-03-02T13:56:58.344Z,54.58
2023-03-02T13:59:32.055Z,54.57
2023-03-02T14:02:04.397Z,54.58
2023-03-02T14:04:36.996Z,54.61
2023-03-02T14:07:09.362Z,54.57
2023-03-02T14:09:41.760Z,54.59
2023-03-02T14:12:23.404Z,54.75
2023-03-02T14:14:58.134Z,54.48
2023-03-02T14:17:30.673Z,54.38
2023-03-02T14:20:03.123Z,54.33
2023-03-02T14:22:35.715Z,54.54
2023-03-02T14:25:09.987Z,54.71
2023-03-02T14:27:43.997Z,54.71
2023-03-02T14:30:20.171Z,54.81
2023-03-02T14:32:52.596Z,55.13
2023-03-02T14:35:26.652Z,54.88
2023-03-02T14:37:58.937Z,54.98
2023-03-02T14:40:31.476Z,54.83
2023-03-02T14:43:03.758Z,55.01
2023-03-02T14:45:36.120Z,54.76
2023-03-02T14:48:08.767Z,54.81
2023-03-02T14:50:45.023Z,54.62
2023-03-02T14:53:20.906Z,54.81
2023-03-02T14:55:51.609Z,54.84
2023-03-02T14:58:30.820Z,54.50
2023-03-02T15:01:03.666Z,54.48
2023-03-02T15:03:36.326Z,54.51
2023-03-02T15:06:20.500Z,54.62
2023-03-02T15:08:53.078Z,54.62
2023-03-02T15:11:26.609Z,54.61
2023-03-02T15:13:59.601Z,54.77
2023-03-02T15:16:31.931Z,54.52
2023-03-02T15:19:04.200Z,54.66
2023-03-02T15:21:37.337Z,54.52
2023-03-02T15:24:10.435Z,54.88
2023-03-02T15:26:42.909Z,54.80
2023-03-02T15:29:15.313Z,54.54
2023-03-02T15:31:48.063Z,54.41
2023-03-02T15:34:20.497Z,54.57
2023-03-02T15:36:52.840Z,54.76
2023-03-02T15:39:25.472Z,54.53
2023-03-02T15:41:57.735Z,54.31
2023-03-02T15:44:30.183Z,54.55
2023-03-02T15:47:02.955Z,54.27
2023-03-02T15:49:35.243Z,54.42
2023-03-02T15:52:07.819Z,54.40
2023-03-02T15:54:40.238Z,54.46
2023-03-02T15:57:12.751Z,54.66
2023-03-02T15:59:46.396Z,54.52
2023-03-02T16:02:18.774Z,54.59
2023-03-02T16:04:51.046Z,54.17
2023-03-02T16:07:23.326Z,54.23
2023-03-02T16:09:55.719Z,54.19
2023-03-02T16:12:28.684Z,54.56
2023-03-02T16:15:01.040Z,54.33
2023-03-02T16:17:33.421Z,54.40
2023-03-02T16:20:06.590Z,54.49
2023-03-02T16:22:38.995Z,54.60
2023-03-02T16:25:12.218Z,54.56
2023-03-02T16:27:47.718Z,54.40
2023-03-02T16:30:23.153Z,54.64
2023-03-02T16:33:00.310Z,54.43
2023-03-02T16:35:34.306Z,54.46
2023-03-02T16:38:08.045Z,54.42
2023-03-02T16:40:41.137Z,54.50
2023-03-02T16:43:13.543Z,54.27
2023-03-02T16:45:46.345Z,54.45
2023-03-02T16:48:18.846Z,54.49
2023-03-02T16:50:57.921Z,54.30
2023-03-02T16:53:30.330Z,54.41
2023-03-02T16:56:02.814Z,54.19
2023-03-02T16:58:38.333Z,54.34
2023-03-02T17:01:12.351Z,54.57
2023-03-02T17:03:45.743Z,54.31
2023-03-02T17:06:20.325Z,54.40
2023-03-02T17:08:52.832Z,54.42
2023-03-02T17:11:25.293Z,54.25
2023-03-02T17:13:57.607Z,54.34
2023-03-02T17:16:30.151Z,54.40
2023-03-02T17:19:02.735Z,54.48
2023-03-02T17:21:35.116Z,54.30
2023-03-02T17:24:07.861Z,54.45
2023-03-02T17:26:40.143Z,54.24
2023-03-02T17:29:12.499Z,54.49
2023-03-02T17:31:44.937Z,54.41
2023-03-02T17:34:17.592Z,54.48
2023-03-02T17:36:49.978Z,54.45
2023-03-02T17:39:22.347Z,54.46
2023-03-02T17:41:55.471Z,54.34
2023-03-02T17:44:27.945Z,54.48
2023-03-02T17:47:00.356Z,54.54
2023-03-02T17:49:32.890Z,54.55
2023-03-02T17:52:05.555Z,54.38
2023-03-02T17:54:37.901Z,54.42
2023-03-02T17:57:10.744Z,54.63
2023-03-02T17:59:43.150Z,54.39
2023-03-02T18:02:15.490Z,54.60
2023-03-02T18:04:47.842Z,54.47
2023-03-02T18:07:20.122Z,54.49
2023-03-02T18:09:52.365Z,54.63
2023-03-02T18:12:24.569Z,54.54
2023-03-02T18:14:57.101Z,54.63
2023-03-02T18:17:29.484Z,54.79
2023-03-02T18:20:01.873Z,54.74
2023-03-02T18:22:34.149Z,54.61
2023-03-02T18:25:07.657Z,54.51
2023-03-02T18:27:40.002Z,54.79
2023-03-02T18:30:14.458Z,54.63
2023-03-02T18:32:46.729Z,54.66
2023-03-02T18:35:20.435Z,54.64
2023-03-02T18:37:54.281Z,54.62
2023-03-02T18:40:26.771Z,54.83
2023-03-02T18:42:59.146Z,54.50
2023-03-02T18:45:33.134Z,54.74
2023-03-02T18:48:06.414Z,54.61
2023-03-02T18:50:39.793Z,54.80
2023-03-02T18:53:13.051Z,54.84
2023-03-02T18:55:45.495Z,54.76
2023-03-02T18:58:21.546Z,54.74
2023-03-02T19:00:55.723Z,55.02
2023-03-02T19:03:28.462Z,54.90
2023-03-02T19:06:00.969Z,55.00
2023-03-02T19:08:33.853Z,54.99
2023-03-02T19:11:07.013Z,54.85
2023-03-02T19:13:39.506Z,54.95
2023-03-02T19:16:12.478Z,54.76
2023-03-02T19:18:44.849Z,54.74
2023-03-02T19:21:17.287Z,54.79
2023-03-02T19:23:49.625Z,55.01
2023-03-02T19:26:21.988Z,54.84
2023-03-02T19:28:55.098Z,55.09
2023-03-02T19:31:27.707Z,55.01
2023-03-02T19:34:00.620Z,54.90
2023-03-02T19:36:32.969Z,55.02
2023-03-02T19:39:05.364Z,54.91
2023-03-02T19:41:37.892Z,54.83
2023-03-02T19:44:10.793Z,55.03
2023-03-02T19:46:43.164Z,54.95
2023-03-02T19:49:15.834Z,54.77
2023-03-02T19:51:48.297Z,54.97
2023-03-02T19:54:20.685Z,55.10
2023-03-02T19:56:54.230Z,54.85
2023-03-02T19:59:27.368Z,54.90
2023-03-02T20:01:59.712Z,55.14
2023-03-02T20:04:32.817Z,55.11
2023-03-02T20:07:06.021Z,54.99
2023-03-02T20:09:38.498Z,55.23
2023-03-02T20:12:11.774Z,55.02
2023-03-02T20:14:48.749Z,54.92
2023-03-02T20:17:21.891Z,55.14
2023-03-02T20:19:56.142Z,54.98
2023-03-02T20:22:28.384Z,54.97
2023-03-02T20:25:00.664Z,55.02
2023-03-02T20:27:33.287Z,54.98
2023-03-02T20:30:07.938Z,54.95
2023-03-02T20:32:40.481Z,55.03
2023-03-02T20:35:14.693Z,55.07
2023-03-02T20:37:47.860Z,55.00
2023-03-02T20:40:22.704Z,55.05
2023-03-02T20:42:55.841Z,55.12
2023-03-02T20:45:28.586Z,55.04
2023-03-02T20:48:01.559Z,55.11
2023-03-02T20:50:36.448Z,55.23
2023-03-02T20:53:09.384Z,55.25
2023-03-02T20:55:41.963Z,55.19
2023-03-02T20:58:14.745Z,55.19
2023-03-02T21:00:48.755Z,55.41
2023-03-02T21:03:21.179Z,55.24
2023-03-02T21:05:53.846Z,55.18
2023-03-02T21:08:26.370Z,55.33
2023-03-02T21:10:58.639Z,55.55
2023-03-02T21:13:31.019Z,55.50
2023-03-02T21:16:03.580Z,55.74
2023-03-02T21:18:36.233Z,55.53
2023-03-02T21:21:09.279Z,55.63
2023-03-02T21:23:42.122Z,55.51
2023-03-02T21:26:16.329Z,55.50
2023-03-02T21:28:49.295Z,55.50
2023-03-02T21:31:21.648Z,55.81
2023-03-02T21:33:54.169Z,55.62
2023-03-02T21:36:27.402Z,55.70
2023-03-02T21:38:59.957Z,55.75
2023-03-02T21:41:32.308Z,55.84
2023-03-02T21:44:05.862Z,55.89
2023-03-02T21:46:39.593Z,55.93
2023-03-02T21:49:12.952Z,55.79
2023-03-02T21:51:45.710Z,55.66
2023-03-02T21:54:18.587Z,55.82
2023-03-02T21:56:50.990Z,55.64
2023-03-02T21:59:23.365Z,55.69
2023-03-02T22:01:55.922Z,55.88
2023-03-02T22:04:28.287Z,55.87
2023-03-02T22:07:01.008Z,55.91
2023-03-02T22:09:33.416Z,55.49
2023-03-02T22:12:12.561Z,56.07
2023-03-02T22:14:45.154Z,55.90
2023-03-02T22:17:20.529Z,56.05
2023-03-02T22:19:52.424Z,55.98
2023-03-02T22:22:30.201Z,56.06
2023-03-02T22:25:02.532Z,56.13
2023-03-02T22:27:36.339Z,56.23
2023-03-02T22:30:20.488Z,56.14
2023-03-02T22:32:53.066Z,56.42
2023-03-02T22:35:28.649Z,56.19
2023-03-02T22:38:06.623Z,56.22
2023-03-02T22:40:41.377Z,56.28
2023-03-02T22:43:21.639Z,56.40
2023-03-02T22:45:55.631Z,56.62
2023-03-02T22:48:29.566Z,56.48
2023-03-02T22:51:11.192Z,56.47
2023-03-02T22:53:47.833Z,56.81
2023-03-02T22:56:30.089Z,56.68
2023-03-02T22:59:10.471Z,56.59
2023-03-02T23:01:45.243Z,56.77
2023-03-02T23:04:21.899Z,56.73
2023-03-02T23:06:55.513Z,56.70
2023-03-02T23:09:30.564Z,56.86
2023-03-02T23:12:10.843Z,56.69
2023-03-02T23:14:49.087Z,56.84
2023-03-02T23:17:28.696Z,56.64
2023-03-02T23:20:01.318Z,56.63
2023-03-02T23:22:33.890Z,56.70
2023-03-02T23:25:07.122Z,56.69
2023-03-02T23:27:39.379Z,56.67
2023-03-02T23:30:17.863Z,56.77
2023-03-02T23:32:50.175Z,56.88
2023-03-02T23:35:22.679Z,56.92
2023-03-02T23:37:55.171Z,56.82
2023-03-02T23:40:27.593Z,57.01
2023-03-02T23:42:59.997Z,56.72
2023-03-02T23:45:32.628Z,56.68
2023-03-02T23:48:05.565Z,56.72
2023-03-02T23:50:37.895Z,56.77
2023-03-02T23:53:10.265Z,57.03
2023-03-02T23:55:48.075Z,56.82
2023-03-02T23:58:20.490Z,56.68
